Time;durP1;ratioP1;P1;durP2;ratioP2;P2;SDS_P1;SDS_P2;PMS_P1;PMS_P2;Temp;Humidity;BMP_temperature;BMP_pressure;BME280_temperature;BME280_humidity;BME280_pressure;Samples;Min_cycle;Max_cycle;Signal;HPM_P1;HPM_P2
2022/12/06 00:01:41;;;;;;;351.17;160.68;;;4.80;99.90;;;;;;5135980;27;20031;-71
2022/12/06 00:04:12;;;;;;;383.73;173.57;;;4.80;99.90;;;;;;5136448;27;20035;-71
2022/12/06 00:06:40;;;;;;;367.40;162.60;;;4.70;99.90;;;;;;5135910;27;20023;-71
2022/12/06 00:09:07;;;;;;;325.23;149.48;;;4.70;99.90;;;;;;5136086;27;20464;-71
2022/12/06 00:11:35;;;;;;;292.67;136.68;;;4.70;99.90;;;;;;5135725;27;20027;-71
2022/12/06 00:14:05;;;;;;;261.40;121.97;;;4.60;99.90;;;;;;5135927;27;20039;-71
2022/12/06 00:16:31;;;;;;;288.73;127.93;;;4.50;99.90;;;;;;5135682;27;20106;-71
2022/12/06 00:18:58;;;;;;;275.65;122.82;;;4.50;99.90;;;;;;5135864;27;20031;-71
2022/12/06 00:21:29;;;;;;;303.95;136.60;;;4.60;99.90;;;;;;5135675;27;20022;-71
2022/12/06 00:24:01;;;;;;;297.95;133.75;;;4.50;99.90;;;;;;5136111;27;20030;-71
2022/12/06 00:26:27;;;;;;;298.80;139.32;;;4.70;99.90;;;;;;5135091;27;20031;-71
2022/12/06 00:28:56;;;;;;;301.73;134.98;;;4.70;99.90;;;;;;5135811;27;20529;-71
2022/12/06 00:31:25;;;;;;;291.92;131.88;;;4.70;99.90;;;;;;5135599;27;20023;-71
2022/12/06 00:33:51;;;;;;;275.77;125.38;;;4.70;99.90;;;;;;5135489;27;20062;-71
2022/12/06 00:36:19;;;;;;;229.60;110.40;;;4.60;99.90;;;;;;5135614;27;20373;-71
2022/12/06 00:38:46;;;;;;;224.02;106.28;;;4.60;99.90;;;;;;5135433;27;20132;-71
2022/12/06 00:41:19;;;;;;;193.45;92.53;;;4.30;99.90;;;;;;5135525;27;20097;-71
2022/12/06 00:43:45;;;;;;;250.45;117.20;;;4.20;99.90;;;;;;5135337;27;20027;-71
2022/12/06 00:46:17;;;;;;;230.40;107.00;;;4.00;99.90;;;;;;5135324;27;20031;-71
2022/12/06 00:48:46;;;;;;;257.08;115.88;;;4.00;99.90;;;;;;5135290;27;20532;-71
2022/12/06 00:51:13;;;;;;;315.10;129.70;;;4.00;99.90;;;;;;5135479;27;20031;-71
2022/12/06 00:53:40;;;;;;;305.83;130.73;;;4.10;99.90;;;;;;5135194;27;20087;-71
2022/12/06 00:56:06;;;;;;;305.60;128.30;;;4.10;99.90;;;;;;5135239;27;20023;-71
2022/12/06 00:58:32;;;;;;;294.58;129.73;;;4.10;99.90;;;;;;5134906;27;20090;-71
2022/12/06 01:01:13;;;;;;;247.05;113.53;;;4.20;99.90;;;;;;5135020;27;20307;-71
2022/12/06 01:03:39;;;;;;;189.57;94.03;;;4.30;99.90;;;;;;5134937;27;20019;-71
2022/12/06 01:06:08;;;;;;;182.55;86.60;;;4.10;99.90;;;;;;5135155;27;20016;-71
2022/12/06 01:08:34;;;;;;;176.20;85.35;;;4.10;99.90;;;;;;5134876;27;20042;-71
2022/12/06 01:11:00;;;;;;;171.93;86.22;;;3.90;99.90;;;;;;5134839;27;20050;-71
2022/12/06 01:13:26;;;;;;;195.40;95.50;;;3.50;99.90;;;;;;5134958;27;20035;-71
2022/12/06 01:15:53;;;;;;;193.32;92.32;;;3.50;99.90;;;;;;5135007;28;20457;-71
2022/12/06 01:18:19;;;;;;;195.25;94.93;;;3.50;99.90;;;;;;5135100;28;20037;-71
2022/12/06 01:20:46;;;;;;;225.48;107.43;;;3.60;99.90;;;;;;5135049;28;20035;-71
2022/12/06 01:23:13;;;;;;;223.82;101.47;;;3.70;99.90;;;;;;5134989;28;20545;-71
2022/12/06 01:25:47;;;;;;;204.50;92.20;;;3.90;99.90;;;;;;5134960;28;20031;-71
2022/12/06 01:28:13;;;;;;;171.77;80.40;;;3.80;99.90;;;;;;5135101;28;20055;-71
2022/12/06 01:30:39;;;;;;;178.07;86.43;;;3.90;99.90;;;;;;5134794;28;20047;-71
2022/12/06 01:33:05;;;;;;;164.63;80.85;;;3.70;99.90;;;;;;5134874;28;20042;-71
2022/12/06 01:35:31;;;;;;;154.50;75.85;;;3.60;99.90;;;;;;5134639;27;20122;-71
2022/12/06 01:37:56;;;;;;;175.05;85.78;;;3.40;99.90;;;;;;5139061;27;20027;-71
2022/12/06 01:40:22;;;;;;;185.77;89.10;;;3.30;99.90;;;;;;5138944;27;20126;-71
2022/12/06 01:42:48;;;;;;;188.15;90.30;;;3.30;99.90;;;;;;5138941;27;20050;-71
2022/12/06 01:45:14;;;;;;;186.98;88.78;;;3.30;99.90;;;;;;5139043;27;20027;-71
2022/12/06 01:47:42;;;;;;;219.70;99.75;;;3.30;99.90;;;;;;5138624;27;20062;-71
2022/12/06 01:50:11;;;;;;;185.27;86.90;;;3.40;99.90;;;;;;5139092;27;20464;-71
2022/12/06 01:52:47;;;;;;;200.98;90.03;;;3.40;99.90;;;;;;5138594;27;20030;-71
2022/12/06 01:55:14;;;;;;;181.65;84.63;;;3.40;99.90;;;;;;5138838;27;20031;-71
2022/12/06 01:57:40;;;;;;;172.45;84.07;;;3.30;99.90;;;;;;5138501;27;20027;-71
2022/12/06 02:00:07;;;;;;;180.68;84.32;;;3.30;99.90;;;;;;5138514;27;20019;-71
2022/12/06 02:02:36;;;;;;;174.20;83.70;;;3.20;99.90;;;;;;5138513;27;20023;-71
2022/12/06 02:05:02;;;;;;;236.98;105.38;;;3.30;99.90;;;;;;5138619;27;20452;-71
2022/12/06 02:07:29;;;;;;;259.52;112.07;;;3.20;99.90;;;;;;5138117;27;20506;-71
2022/12/06 02:09:55;;;;;;;268.52;114.50;;;3.10;99.90;;;;;;5138328;27;20099;-71
2022/12/06 02:12:21;;;;;;;259.80;116.10;;;3.20;99.90;;;;;;5138769;27;20035;-71
2022/12/06 02:14:52;;;;;;;266.10;115.38;;;3.30;99.90;;;;;;5138107;27;20045;-71
2022/12/06 02:17:42;;;;;;;239.80;111.88;;;3.20;99.90;;;;;;5123525;27;20055;-71
2022/12/06 02:20:17;;;;;;;208.02;97.07;;;3.30;99.90;;;;;;5136253;27;20035;-71
2022/12/06 02:23:22;;;;;;;171.63;82.35;;;3.30;99.90;;;;;;5137744;27;20026;-71
2022/12/06 02:25:58;;;;;;;159.57;77.85;;;3.40;99.90;;;;;;5138245;27;20047;-71
2022/12/06 02:29:05;;;;;;;161.80;78.43;;;3.30;99.90;;;;;;5137970;27;20585;-71
2022/12/06 02:31:59;;;;;;;160.48;79.25;;;3.50;99.90;;;;;;5102742;27;20540;-71
2022/12/06 02:34:39;;;;;;;161.00;78.75;;;3.40;99.90;;;;;;5137682;27;20034;-72
2022/12/06 02:37:21;;;;;;;164.80;79.88;;;3.50;99.90;;;;;;5138050;27;20495;-71
2022/12/06 02:39:53;;;;;;;180.95;84.72;;;3.50;99.90;;;;;;5137757;27;20062;-71
2022/12/06 02:42:44;;;;;;;184.70;84.05;;;3.40;99.90;;;;;;5137896;27;20042;-71
2022/12/06 02:45:18;;;;;;;265.02;114.57;;;3.60;99.90;;;;;;5137422;27;20512;-71
2022/12/06 02:47:47;;;;;;;268.40;118.55;;;3.70;99.90;;;;;;5137057;27;20106;-71
2022/12/06 02:50:21;;;;;;;452.27;184.25;;;3.70;99.90;;;;;;5137622;27;20505;-71
2022/12/06 02:52:49;;;;;;;399.80;165.82;;;3.80;99.90;;;;;;5137526;27;20050;-71
2022/12/06 02:55:18;;;;;;;312.05;134.73;;;3.80;99.90;;;;;;5137542;27;20031;-71
2022/12/06 02:57:47;;;;;;;302.65;126.90;;;3.90;99.90;;;;;;5137221;27;20019;-71
2022/12/06 03:00:37;;;;;;;305.20;128.52;;;3.90;99.90;;;;;;5137930;27;20030;-71
2022/12/06 03:03:15;;;;;;;507.15;205.30;;;3.90;99.90;;;;;;5137482;27;20503;-71
2022/12/06 03:06:04;;;;;;;461.25;180.38;;;3.90;99.90;;;;;;5136983;27;20390;-71
2022/12/06 03:09:25;;;;;;;233.55;104.55;;;4.00;99.90;;;;;;5123792;27;20035;-71
2022/12/06 03:12:09;;;;;;;215.30;92.10;;;4.10;99.90;;;;;;5053425;28;20067;-71
2022/12/06 03:14:58;;;;;;;258.65;114.57;;;4.20;99.90;;;;;;5053477;28;20411;-72
2022/12/06 03:17:34;;;;;;;316.23;128.32;;;4.00;99.90;;;;;;5053326;28;20028;-71
2022/12/06 03:20:11;;;;;;;312.92;132.20;;;4.10;99.90;;;;;;5053202;28;20044;-71
2022/12/06 03:22:40;;;;;;;312.05;131.15;;;4.20;99.90;;;;;;5053245;28;20033;-71
2022/12/06 03:25:09;;;;;;;311.87;136.90;;;4.20;99.90;;;;;;5053406;28;20032;-71
2022/12/06 03:27:35;;;;;;;320.63;137.90;;;4.30;99.90;;;;;;5053216;28;20033;-71
2022/12/06 03:30:08;;;;;;;201.57;89.65;;;4.30;99.90;;;;;;5053423;28;20399;-71
2022/12/06 03:32:37;;;;;;;195.05;86.30;;;4.40;99.90;;;;;;5052828;28;20435;-71
2022/12/06 03:35:07;;;;;;;225.10;103.00;;;4.30;99.90;;;;;;5053017;28;20088;-71
2022/12/06 03:37:37;;;;;;;198.40;90.80;;;4.30;99.90;;;;;;5053014;28;20044;-71
2022/12/06 03:40:18;;;;;;;186.63;84.70;;;4.30;99.90;;;;;;5052960;28;20091;-71
2022/12/06 03:42:45;;;;;;;176.35;77.65;;;4.40;99.90;;;;;;5036186;28;20072;-71
2022/12/06 03:45:12;;;;;;;167.38;76.85;;;4.40;99.90;;;;;;5068297;28;20048;-72
2022/12/06 03:47:38;;;;;;;164.77;73.72;;;4.40;99.90;;;;;;5095775;28;20028;-71
2022/12/06 03:50:09;;;;;;;167.10;77.20;;;4.30;99.90;;;;;;5095731;28;20089;-71
2022/12/06 03:52:37;;;;;;;156.00;72.20;;;4.40;99.90;;;;;;5095371;28;20503;-71
2022/12/06 03:55:03;;;;;;;155.07;72.70;;;4.50;99.90;;;;;;5095651;28;20111;-71
2022/12/06 03:57:29;;;;;;;190.30;89.72;;;4.40;99.90;;;;;;5095138;28;20061;-71
2022/12/06 03:59:55;;;;;;;211.27;100.07;;;4.50;99.90;;;;;;5094337;28;20028;-71
2022/12/06 04:02:21;;;;;;;208.93;99.60;;;4.50;99.90;;;;;;5095473;28;20053;-71
2022/12/06 04:04:48;;;;;;;187.32;85.28;;;4.60;99.90;;;;;;5095331;28;20032;-71
2022/12/06 04:07:14;;;;;;;180.27;86.25;;;4.60;99.90;;;;;;5095144;28;20034;-71
2022/12/06 04:09:52;;;;;;;205.82;103.22;;;4.60;99.90;;;;;;5103742;28;20024;-71
2022/12/06 04:15:04;;;;;;;191.40;93.40;;;4.50;99.90;;;;;;5115468;28;20480;-71
2022/12/06 04:20:14;;;;;;;174.10;82.65;;;4.70;99.90;;;;;;5115180;28;20108;-71
2022/12/06 04:25:24;;;;;;;149.52;65.88;;;4.80;99.90;;;;;;5096995;28;20035;-71
2022/12/06 04:38:48;;;;;;;112.70;51.90;;;4.80;99.90;;;;;;5115126;28;20145;-71
2022/12/06 04:43:40;;;;;;;119.55;52.70;;;4.80;99.90;;;;;;5115003;28;20032;-71
2022/12/06 04:44:03;;;;;;;121.72;54.33;;;4.70;99.90;;;;;;5114914;28;20027;-71
2022/12/06 04:46:30;;;;;;;111.30;54.03;;;4.70;99.90;;;;;;5114609;28;20034;-71
2022/12/06 04:48:56;;;;;;;119.72;53.63;;;4.70;99.90;;;;;;5114909;28;20051;-71
2022/12/06 04:51:22;;;;;;;134.10;62.08;;;4.90;99.90;;;;;;5114917;28;20070;-71
2022/12/06 04:53:48;;;;;;;130.52;63.22;;;4.80;99.90;;;;;;5114668;28;20127;-71
2022/12/06 04:56:14;;;;;;;154.75;70.88;;;4.80;99.90;;;;;;5114801;28;20066;-71
2022/12/06 04:58:40;;;;;;;139.52;67.72;;;4.90;99.90;;;;;;5114631;28;20027;-71
2022/12/06 05:01:06;;;;;;;140.73;63.85;;;4.90;99.90;;;;;;5114763;28;20457;-71
2022/12/06 05:03:32;;;;;;;129.52;60.78;;;5.00;99.90;;;;;;5114400;28;20027;-71
2022/12/06 05:05:58;;;;;;;117.57;57.25;;;4.90;99.90;;;;;;5114556;28;20023;-71
2022/12/06 05:08:24;;;;;;;128.13;56.25;;;4.90;99.90;;;;;;5096187;28;20493;-71
2022/12/06 05:10:50;;;;;;;121.28;60.17;;;4.90;99.90;;;;;;5113963;28;20118;-71
2022/12/06 05:13:17;;;;;;;111.32;52.22;;;4.90;99.90;;;;;;5114505;28;20024;-71
2022/12/06 05:15:58;;;;;;;120.57;57.63;;;4.90;99.90;;;;;;5114391;28;20042;-71
2022/12/06 05:18:24;;;;;;;129.90;60.13;;;5.00;99.90;;;;;;5114467;28;20039;-71
2022/12/06 05:20:50;;;;;;;245.57;109.05;;;4.90;99.90;;;;;;5114212;28;20076;-72
2022/12/06 05:23:17;;;;;;;165.75;72.40;;;5.00;99.90;;;;;;5114248;28;20111;-72
2022/12/06 05:25:42;;;;;;;171.48;81.32;;;5.00;99.90;;;;;;5114202;28;20028;-71
2022/12/06 05:28:09;;;;;;;237.70;108.85;;;4.90;99.90;;;;;;5114455;28;20015;-71
2022/12/06 05:30:35;;;;;;;191.20;88.90;;;4.80;99.90;;;;;;5114211;28;20023;-71
2022/12/06 05:33:01;;;;;;;214.85;92.63;;;4.80;99.90;;;;;;5114502;28;20524;-71
2022/12/06 05:35:27;;;;;;;215.18;100.75;;;4.70;99.90;;;;;;5113984;28;20023;-71
2022/12/06 05:37:53;;;;;;;235.13;107.65;;;4.80;99.90;;;;;;5114272;28;20028;-71
2022/12/06 05:40:19;;;;;;;138.25;66.65;;;4.70;99.90;;;;;;5114263;28;20024;-71
2022/12/06 05:42:45;;;;;;;148.88;74.05;;;4.70;99.90;;;;;;5114130;28;20522;-71
2022/12/06 05:45:11;;;;;;;238.00;110.22;;;4.70;99.90;;;;;;5114067;28;20442;-71
2022/12/06 05:47:36;;;;;;;242.35;113.00;;;4.60;99.90;;;;;;5113925;28;20023;-71
2022/12/06 05:50:03;;;;;;;267.48;121.47;;;4.60;99.90;;;;;;5114123;28;20023;-71
2022/12/06 05:52:28;;;;;;;376.98;181.63;;;4.70;99.90;;;;;;5113893;28;20043;-71
2022/12/06 05:54:54;;;;;;;384.67;195.05;;;4.70;99.90;;;;;;5114264;28;20031;-71
2022/12/06 05:57:20;;;;;;;245.02;113.63;;;4.70;99.90;;;;;;5114070;28;20030;-71
2022/12/06 05:59:46;;;;;;;184.38;82.75;;;4.70;99.90;;;;;;5113857;28;20043;-71
2022/12/06 06:02:12;;;;;;;174.15;73.18;;;4.70;99.90;;;;;;5114033;28;20057;-71
2022/12/06 06:04:38;;;;;;;145.13;70.28;;;4.80;99.90;;;;;;5114029;28;20023;-71
2022/12/06 06:07:04;;;;;;;158.20;72.10;;;4.80;99.90;;;;;;5113978;28;20023;-71
2022/12/06 06:09:29;;;;;;;156.40;68.60;;;4.80;99.90;;;;;;5113513;28;20039;-71
2022/12/06 06:11:55;;;;;;;147.30;66.32;;;4.80;99.90;;;;;;5114344;28;20038;-72
2022/12/06 06:14:22;;;;;;;148.82;67.47;;;4.80;99.90;;;;;;5113937;28;20027;-71
2022/12/06 06:16:48;;;;;;;164.40;72.10;;;4.60;99.90;;;;;;5114050;28;20032;-71
2022/12/06 06:19:14;;;;;;;249.82;116.00;;;4.60;99.90;;;;;;5112536;28;20043;-71
2022/12/06 06:21:40;;;;;;;222.95;101.82;;;4.60;99.90;;;;;;5111260;28;20035;-71
2022/12/06 06:24:06;;;;;;;239.65;102.82;;;4.60;99.90;;;;;;5111385;28;20408;-72
2022/12/06 06:26:32;;;;;;;146.82;67.10;;;4.60;99.90;;;;;;5097947;28;20412;-71
2022/12/06 06:28:58;;;;;;;173.32;77.05;;;4.70;99.90;;;;;;5104750;28;20020;-71
2022/12/06 06:31:24;;;;;;;181.10;80.63;;;4.70;99.90;;;;;;5111171;28;20028;-72
2022/12/06 06:33:49;;;;;;;174.88;78.25;;;4.80;99.90;;;;;;5114937;28;20031;-72
2022/12/06 06:36:15;;;;;;;186.60;81.80;;;4.80;99.90;;;;;;5117114;28;20031;-72
2022/12/06 06:38:44;;;;;;;235.15;105.32;;;4.80;99.90;;;;;;5106390;28;20039;-71
2022/12/06 06:41:11;;;;;;;279.35;131.02;;;4.70;99.90;;;;;;5096533;28;20028;-71
2022/12/06 06:43:37;;;;;;;224.63;100.15;;;4.70;99.90;;;;;;5103601;28;20020;-71
2022/12/06 06:46:08;;;;;;;203.32;93.55;;;4.80;99.90;;;;;;5103689;28;20024;-71
2022/12/06 06:48:36;;;;;;;211.48;97.22;;;4.80;99.90;;;;;;5097307;28;20024;-71
2022/12/06 06:51:06;;;;;;;205.60;87.27;;;4.80;99.90;;;;;;5111956;28;20095;-71
2022/12/06 06:53:32;;;;;;;189.27;89.22;;;4.90;99.90;;;;;;5104430;28;20343;-71
2022/12/06 06:55:58;;;;;;;320.90;148.65;;;5.00;99.90;;;;;;5100484;28;20035;-71
2022/12/06 06:58:24;;;;;;;252.13;115.10;;;5.00;99.90;;;;;;5114084;27;20110;-71
2022/12/06 07:00:58;;;;;;;233.93;107.38;;;5.10;99.90;;;;;;5119785;27;20483;-71
2022/12/06 07:03:25;;;;;;;179.32;77.55;;;5.10;99.90;;;;;;5096582;27;20047;-71
2022/12/06 07:05:59;;;;;;;154.10;66.95;;;5.20;99.90;;;;;;5124890;27;20030;-72
2022/12/06 07:08:26;;;;;;;156.65;67.20;;;5.20;99.90;;;;;;5124575;27;20556;-71
2022/12/06 07:10:53;;;;;;;153.65;70.80;;;5.40;99.90;;;;;;5123874;27;20038;-71
2022/12/06 07:13:19;;;;;;;148.40;68.47;;;5.30;99.90;;;;;;5126445;27;20035;-71
2022/12/06 07:15:46;;;;;;;153.15;68.18;;;5.50;99.90;;;;;;5126645;27;20023;-71
2022/12/06 07:18:19;;;;;;;165.32;72.75;;;5.60;99.90;;;;;;5106118;27;20023;-71
2022/12/06 07:20:48;;;;;;;235.98;118.20;;;5.70;99.90;;;;;;5124591;27;20493;-71
2022/12/06 07:23:14;;;;;;;201.90;91.60;;;5.70;99.90;;;;;;5124133;27;20039;-71
2022/12/06 07:25:40;;;;;;;138.10;63.38;;;5.80;99.90;;;;;;5125420;27;20160;-71
2022/12/06 07:28:06;;;;;;;111.85;50.50;;;5.90;99.90;;;;;;5122521;27;20101;-71
2022/12/06 07:30:38;;;;;;;123.38;58.33;;;6.00;99.90;;;;;;5118306;27;20110;-71
2022/12/06 07:33:04;;;;;;;156.55;64.53;;;6.10;99.90;;;;;;5129284;27;20386;-71
2022/12/06 07:35:30;;;;;;;143.27;62.20;;;6.10;99.90;;;;;;5131339;27;20145;-72
2022/12/06 07:37:56;;;;;;;151.15;68.13;;;6.20;99.90;;;;;;5097940;28;20055;-71
2022/12/06 07:40:22;;;;;;;137.52;63.53;;;6.10;99.90;;;;;;5106347;28;20036;-72
2022/12/06 07:45:35;;;;;;;166.43;84.13;;;6.30;99.90;;;;;;5112595;28;20389;-72
2022/12/06 07:48:10;;;;;;;168.02;84.18;;;6.40;99.90;;;;;;5115742;28;20019;-71
2022/12/06 07:50:38;;;;;;;175.85;87.93;;;6.50;99.90;;;;;;5115148;28;20066;-71
2022/12/06 07:53:04;;;;;;;185.07;95.43;;;6.60;99.90;;;;;;5114846;28;20382;-72
2022/12/06 07:55:30;;;;;;;215.70;108.25;;;6.80;99.90;;;;;;5113598;28;20031;-72
2022/12/06 07:57:56;;;;;;;221.18;112.00;;;7.10;99.90;;;;;;5107944;28;20103;-72
2022/12/06 08:00:22;;;;;;;176.38;89.57;;;7.60;99.90;;;;;;5116219;28;20026;-72
2022/12/06 08:02:48;;;;;;;170.10;85.07;;;8.00;99.90;;;;;;5114917;28;20047;-72
2022/12/06 08:05:14;;;;;;;171.23;82.35;;;8.30;99.90;;;;;;5115878;28;20121;-72
2022/12/06 08:07:40;;;;;;;171.48;84.40;;;8.40;99.90;;;;;;5113850;28;20096;-72
2022/12/06 08:10:07;;;;;;;206.65;92.32;;;8.50;99.90;;;;;;5109959;28;20373;-72
2022/12/06 08:12:33;;;;;;;200.10;97.30;;;8.50;99.90;;;;;;5116118;28;20035;-71
2022/12/06 08:14:59;;;;;;;183.10;92.32;;;8.50;99.90;;;;;;5115412;28;20752;-72
2022/12/06 08:17:25;;;;;;;171.45;83.97;;;8.60;99.90;;;;;;5115316;28;20103;-71
2022/12/06 08:19:51;;;;;;;167.85;83.30;;;8.60;99.90;;;;;;5115257;28;20165;-72
2022/12/06 08:22:16;;;;;;;187.60;96.40;;;8.70;99.90;;;;;;5114417;28;20027;-71
2022/12/06 08:24:42;;;;;;;198.05;104.53;;;8.70;99.90;;;;;;5115120;28;20020;-71
2022/12/06 08:27:08;;;;;;;252.70;124.80;;;8.60;99.90;;;;;;5115341;28;20469;-71
2022/12/06 08:29:34;;;;;;;266.77;123.85;;;8.60;99.90;;;;;;5114350;28;20028;-71
2022/12/06 08:32:00;;;;;;;257.52;120.75;;;8.50;99.90;;;;;;5107933;28;20032;-71
2022/12/06 08:34:26;;;;;;;258.83;119.95;;;8.40;99.90;;;;;;5113772;28;20057;-72
2022/12/06 08:36:52;;;;;;;249.38;116.85;;;8.20;99.90;;;;;;5114664;28;20024;-72
2022/12/06 08:39:24;;;;;;;258.27;117.50;;;8.20;99.90;;;;;;5114666;28;20525;-72
2022/12/06 08:41:59;;;;;;;252.38;114.43;;;8.10;99.90;;;;;;5114399;28;20027;-72
2022/12/06 08:44:26;;;;;;;241.93;111.85;;;8.20;99.90;;;;;;5115113;28;20031;-72
2022/12/06 08:46:53;;;;;;;255.40;133.02;;;8.10;99.90;;;;;;5114804;28;20031;-72
2022/12/06 08:49:19;;;;;;;279.30;151.55;;;8.10;99.90;;;;;;5107230;28;20031;-72
2022/12/06 08:51:46;;;;;;;297.02;169.40;;;8.10;99.90;;;;;;5114186;28;20468;-72
2022/12/06 08:54:14;;;;;;;294.13;171.00;;;8.20;99.90;;;;;;5114324;28;20039;-72
2022/12/06 08:56:41;;;;;;;317.27;197.40;;;8.20;99.90;;;;;;5114875;28;20086;-72
2022/12/06 08:59:07;;;;;;;271.52;166.55;;;8.30;99.90;;;;;;5111932;28;20063;-72
2022/12/06 09:01:40;;;;;;;205.23;112.85;;;8.40;99.90;;;;;;5111971;28;20055;-72
2022/12/06 09:04:07;;;;;;;175.15;95.70;;;8.50;99.90;;;;;;5102207;28;20055;-72
2022/12/06 09:06:36;;;;;;;165.80;85.10;;;8.60;99.90;;;;;;5124263;27;20437;-72
2022/12/06 09:09:03;;;;;;;155.35;77.65;;;8.70;99.90;;;;;;5120977;27;20023;-72
2022/12/06 09:11:31;;;;;;;157.68;82.28;;;8.70;99.90;;;;;;5117895;27;20138;-72
2022/12/06 09:13:57;;;;;;;164.57;82.70;;;8.80;99.90;;;;;;5107863;27;20027;-72
2022/12/06 09:16:26;;;;;;;177.15;89.28;;;8.90;99.90;;;;;;5112597;27;20033;-72
2022/12/06 09:19:02;;;;;;;182.63;89.05;;;8.90;99.90;;;;;;5098338;28;20055;-72
2022/12/06 09:21:31;;;;;;;182.27;91.75;;;9.00;99.90;;;;;;5124007;28;20031;-72
2022/12/06 09:24:04;;;;;;;177.27;87.18;;;9.10;99.90;;;;;;5114618;28;20024;-72
2022/12/06 09:26:36;;;;;;;183.38;88.18;;;9.10;99.90;;;;;;5112483;28;20028;-72
2022/12/06 09:29:03;;;;;;;191.70;89.43;;;9.20;99.90;;;;;;5113681;28;20110;-72
2022/12/06 09:31:34;;;;;;;189.07;89.40;;;9.20;99.90;;;;;;5115995;28;20019;-72
2022/12/06 09:34:07;;;;;;;181.20;90.45;;;9.20;99.90;;;;;;5115330;28;20061;-72
2022/12/06 09:36:41;;;;;;;181.70;87.90;;;9.30;99.90;;;;;;5112524;28;20028;-72
2022/12/06 09:39:32;;;;;;;187.48;85.03;;;9.20;99.90;;;;;;5109479;28;20024;-72
2022/12/06 09:42:25;;;;;;;184.60;87.22;;;9.20;99.90;;;;;;5106746;28;20028;-72
2022/12/06 09:45:23;;;;;;;187.18;87.72;;;9.20;99.90;;;;;;5112395;28;20032;-72
2022/12/06 09:48:06;;;;;;;189.05;90.72;;;9.10;99.90;;;;;;5108307;28;20031;-72
2022/12/06 09:50:32;;;;;;;187.10;86.85;;;9.00;99.90;;;;;;5114487;28;20093;-72
2022/12/06 09:53:29;;;;;;;184.45;87.70;;;9.00;99.90;;;;;;5102496;28;20035;-72
2022/12/06 09:56:29;;;;;;;170.50;80.90;;;8.90;99.90;;;;;;5097757;28;20088;-72
2022/12/06 09:59:06;;;;;;;181.32;84.10;;;8.90;99.90;;;;;;5071000;28;20442;-71
2022/12/06 10:02:17;;;;;;;174.80;91.03;;;8.90;99.90;;;;;;5117361;28;20032;-71
2022/12/06 10:04:57;;;;;;;212.65;107.95;;;8.90;99.90;;;;;;5138261;27;20077;-72
2022/12/06 10:07:26;;;;;;;201.27;103.33;;;8.90;99.90;;;;;;5115092;27;20032;-72
2022/12/06 10:10:20;;;;;;;217.57;103.75;;;9.00;99.90;;;;;;5112186;28;20832;-73
2022/12/06 10:13:06;;;;;;;185.18;93.68;;;8.90;99.90;;;;;;5099763;28;20062;-73
2022/12/06 10:15:41;;;;;;;180.57;84.40;;;9.00;99.90;;;;;;5098835;28;20513;-73
2022/12/06 10:18:45;;;;;;;181.55;88.97;;;9.00;99.90;;;;;;5104090;27;20574;-72
2022/12/06 10:21:25;;;;;;;177.38;88.40;;;9.00;99.90;;;;;;4982507;28;20068;-73
2022/12/06 10:24:29;;;;;;;170.48;85.55;;;8.90;99.90;;;;;;4988241;28;20070;-73
2022/12/06 10:27:07;;;;;;;192.13;93.20;;;8.90;99.90;;;;;;4974436;28;20034;-73
2022/12/06 10:33:55;;;;;;;169.35;83.25;;;9.10;99.90;;;;;;4925364;29;20046;-74
2022/12/06 10:36:47;;;;;;;150.95;80.65;;;9.10;99.90;;;;;;4927476;28;20063;-74
2022/12/06 10:39:21;;;;;;;171.75;82.32;;;9.10;99.90;;;;;;4935909;29;20079;-74
2022/12/06 10:42:05;;;;;;;172.85;82.93;;;9.10;99.90;;;;;;4929698;29;20050;-74
2022/12/06 10:44:44;;;;;;;168.23;85.18;;;9.10;99.90;;;;;;4922676;29;20039;-75
2022/12/06 10:47:12;;;;;;;169.85;81.43;;;9.10;99.90;;;;;;4934874;29;20032;-73
2022/12/06 10:49:41;;;;;;;166.68;80.63;;;9.20;99.90;;;;;;4934696;29;20036;-73
2022/12/06 10:52:07;;;;;;;144.85;77.80;;;9.20;99.90;;;;;;4926012;29;20032;-73
2022/12/06 10:55:08;;;;;;;159.43;83.15;;;9.20;99.90;;;;;;4937398;28;20054;-73
2022/12/06 10:57:48;;;;;;;156.82;81.05;;;9.20;99.90;;;;;;4982804;28;20389;-73
2022/12/06 11:00:16;;;;;;;177.13;98.28;;;9.10;99.90;;;;;;4988036;28;20064;-73
2022/12/06 11:03:09;;;;;;;156.18;80.35;;;9.20;99.90;;;;;;4986019;28;20072;-75
2022/12/06 11:05:56;;;;;;;134.82;68.53;;;9.20;99.90;;;;;;4979508;28;20081;-74
2022/12/06 11:08:54;;;;;;;127.93;66.15;;;9.10;99.90;;;;;;5011090;28;20054;-74
2022/12/06 11:11:29;;;;;;;118.18;65.82;;;9.10;99.90;;;;;;5072643;28;20050;-75
2022/12/06 11:14:02;;;;;;;117.18;59.83;;;9.20;99.90;;;;;;5102348;28;20028;-74
2022/12/06 11:16:42;;;;;;;123.28;61.50;;;9.20;99.90;;;;;;5082782;28;20035;-75
2022/12/06 11:19:37;;;;;;;117.65;61.53;;;9.30;99.90;;;;;;5112597;27;20216;-75
2022/12/06 11:22:29;;;;;;;118.53;58.40;;;9.20;99.90;;;;;;5122788;27;20058;-74
2022/12/06 11:25:08;;;;;;;124.20;64.35;;;9.20;99.90;;;;;;5131404;27;20053;-74
2022/12/06 11:27:47;;;;;;;118.80;60.85;;;9.20;99.90;;;;;;5123657;27;20011;-75
2022/12/06 11:30:23;;;;;;;113.55;59.38;;;9.20;99.90;;;;;;5121253;27;20023;-75
2022/12/06 11:32:51;;;;;;;114.57;57.58;;;9.30;99.90;;;;;;5129087;27;20019;-74
2022/12/06 11:35:21;;;;;;;141.45;69.30;;;9.30;99.90;;;;;;5104630;27;20035;-74
2022/12/06 11:37:56;;;;;;;128.93;68.00;;;9.20;99.90;;;;;;5124665;27;20160;-75
2022/12/06 11:40:31;;;;;;;153.27;82.22;;;9.30;99.90;;;;;;5120155;27;20024;-74
2022/12/06 11:43:01;;;;;;;160.32;82.35;;;9.40;99.90;;;;;;5120141;27;20027;-75
2022/12/06 11:45:31;;;;;;;164.40;84.95;;;9.50;99.90;;;;;;5131698;27;20023;-75
2022/12/06 11:48:00;;;;;;;191.50;99.27;;;9.50;99.90;;;;;;5137322;27;20046;-75
2022/12/06 11:50:34;;;;;;;169.85;94.30;;;9.50;99.90;;;;;;5108110;27;20258;-75
2022/12/06 11:53:12;;;;;;;206.52;114.72;;;9.50;99.90;;;;;;5130823;27;20721;-75
2022/12/06 11:55:45;;;;;;;240.43;133.48;;;9.60;99.90;;;;;;5117975;27;20028;-75
2022/12/06 11:58:36;;;;;;;255.32;137.13;;;9.70;99.90;;;;;;5120208;27;20027;-75
2022/12/06 12:01:13;;;;;;;;;;;9.70;99.90;;;;;;5129287;27;20543;-75
2022/12/06 12:03:41;;;;;;;251.65;131.68;;;9.60;99.90;;;;;;5124936;27;19908;-75
2022/12/06 12:06:26;;;;;;;227.98;120.97;;;9.70;99.90;;;;;;5132043;27;20040;-75
2022/12/06 12:08:56;;;;;;;211.35;118.47;;;9.70;99.90;;;;;;5121864;27;20023;-75
2022/12/06 12:11:29;;;;;;;207.55;114.63;;;9.80;99.90;;;;;;5125089;27;20023;-75
2022/12/06 12:14:00;;;;;;;176.30;99.38;;;9.90;99.90;;;;;;5123851;27;20027;-75
2022/12/06 12:16:32;;;;;;;176.93;97.78;;;9.70;99.90;;;;;;5121800;27;20019;-75
2022/12/06 12:19:21;;;;;;;153.35;83.38;;;9.80;99.90;;;;;;5128467;27;20050;-75
2022/12/06 12:21:47;;;;;;;133.85;70.90;;;9.80;99.90;;;;;;5124242;27;20118;-75
2022/12/06 12:24:41;;;;;;;143.27;76.30;;;9.80;99.90;;;;;;5124751;27;20024;-75
2022/12/06 12:27:42;;;;;;;157.57;86.25;;;9.80;99.90;;;;;;5131842;27;20038;-75
2022/12/06 12:30:15;;;;;;;154.52;84.57;;;9.70;99.90;;;;;;5099153;27;20031;-76
2022/12/06 12:32:43;;;;;;;156.18;85.75;;;9.80;99.90;;;;;;5133155;27;20041;-75
2022/12/06 12:35:24;;;;;;;164.57;88.65;;;9.90;99.90;;;;;;5128567;27;20428;-75
2022/12/06 12:37:54;;;;;;;150.75;83.57;;;9.90;99.90;;;;;;5131359;27;20096;-75
2022/12/06 12:40:32;;;;;;;154.35;85.97;;;9.90;99.90;;;;;;5131652;27;20031;-76
2022/12/06 12:43:03;;;;;;;161.38;88.18;;;9.90;99.90;;;;;;5132681;27;20030;-75
2022/12/06 12:45:30;;;;;;;176.25;97.00;;;9.90;99.90;;;;;;5132842;27;20454;-75
2022/12/06 12:48:23;;;;;;;148.88;83.22;;;9.90;99.90;;;;;;5135272;27;20029;-75
2022/12/06 12:50:58;;;;;;;146.48;85.28;;;9.90;99.90;;;;;;5128798;27;20027;-75
2022/12/06 12:53:40;;;;;;;162.50;88.55;;;9.90;99.90;;;;;;5135648;27;20132;-75
2022/12/06 12:56:17;;;;;;;163.88;88.75;;;9.90;99.90;;;;;;5130792;27;20031;-75
2022/12/06 12:58:46;;;;;;;168.50;92.57;;;9.90;99.90;;;;;;5134560;27;20019;-75
2022/12/06 13:01:24;;;;;;;164.93;91.90;;;9.90;99.90;;;;;;5132698;27;20038;-75
2022/12/06 13:04:28;;;;;;;166.02;92.07;;;9.90;99.90;;;;;;5136206;27;20034;-75
2022/12/06 13:07:14;;;;;;;159.05;85.15;;;9.90;99.90;;;;;;5121060;27;20034;-75
2022/12/06 13:09:45;;;;;;;137.50;80.20;;;9.90;99.90;;;;;;5126371;27;20018;-75
2022/12/06 13:12:21;;;;;;;164.60;88.00;;;9.90;99.90;;;;;;5125994;27;20051;-74
2022/12/06 13:14:56;;;;;;;193.45;101.68;;;9.90;99.90;;;;;;5123417;27;20065;-75